Pagrindinis puslapis
METAR-TAF:

METAR-TAF

Oro uostai :

Yüksekova, Turkija

platuma: 37-33-06N, ilguma: 44-14-01E, Aukštis: 1950 m

Dabartinis oras

Ataskaita buvo paskelbta 14 valandos ir 25 minutes, ne 06:50 UTC
Vėjas 3 kt iš Rytų/Pietryčių, svyruoja nuo Rytų ir Pietryčių
Temperatūra -1°C
Drėgmė 100%
Slėgis 1022 hPa
Matomumas: 0300 m
įšaldymas rūko

METAR: LTCW 150650Z 12003KT 080V140 0300 R11/0300N R29/0300N FZFG VV002 M01/M01 Q1022

Laikas: 00:15 (21:15 UTC)

Prognozė

Ataskaita buvo paskelbta 1 valandą ir 35 minutes, ne 19:40 UTC
Prognozė galioja nuo 15 metu 21 UTC su 16 metu 06 UTC
Vėjas 2 kt nuo kintamojo kryptimis
Matomumas: 0650 m
ne aukštis 300 ft
įšaldymas rūko

TAF: LTCW 151940Z 1521/1606 VRB02KT 0650 FZFG VV003

Orai ataskaitas ir orų prognozės (METAR, TAF).

turimą stotys yra geltonos ir raudonos taškus žemėlapyje.

Perkelti pele per norėdami pamatyti stoties vardą.

Tada spustelėkite, norėdami matyti oro stebėjimo ir prognozės.

Norėdami pakeisti žemėlapį: spustelėkite ant žalios mygtukų su juodo kryžiaus žemyn,; žalią mygtuką su brūkšneliu, jei norite nutolinti; arba žalių rodyklių gretimoms žemėlapius.


METAR-TAF: